sensor_id;sensor_type;location;lat;lon;timestamp;temperature;humidity
68480;DHT22;55469;48.934;12.050;2023-02-11T00:01:28;-1.90;95.70
68480;DHT22;55469;48.934;12.050;2023-02-11T00:03:56;-1.90;95.70
68480;DHT22;55469;48.934;12.050;2023-02-11T00:06:23;-1.90;95.60
68480;DHT22;55469;48.934;12.050;2023-02-11T00:08:49;-1.90;95.60
68480;DHT22;55469;48.934;12.050;2023-02-11T00:11:17;-1.90;95.60
68480;DHT22;55469;48.934;12.050;2023-02-11T00:13:44;-1.90;95.70
68480;DHT22;55469;48.934;12.050;2023-02-11T00:16:16;-2.00;95.60
68480;DHT22;55469;48.934;12.050;2023-02-11T00:18:43;-2.00;96.10
68480;DHT22;55469;48.934;12.050;2023-02-11T00:21:17;-2.00;95.60
68480;DHT22;55469;48.934;12.050;2023-02-11T00:23:47;-2.00;95.60
68480;DHT22;55469;48.934;12.050;2023-02-11T00:26:22;-2.00;95.70
68480;DHT22;55469;48.934;12.050;2023-02-11T00:28:52;-2.00;95.60
68480;DHT22;55469;48.934;12.050;2023-02-11T00:31:19;-2.00;95.70
68480;DHT22;55469;48.934;12.050;2023-02-11T00:33:47;-2.00;96.20
68480;DHT22;55469;48.934;12.050;2023-02-11T00:36:19;-2.00;95.70
68480;DHT22;55469;48.934;12.050;2023-02-11T00:38:48;-2.00;95.70
68480;DHT22;55469;48.934;12.050;2023-02-11T00:41:15;-2.00;95.70
68480;DHT22;55469;48.934;12.050;2023-02-11T00:43:41;-2.10;95.70
68480;DHT22;55469;48.934;12.050;2023-02-11T00:46:08;-2.10;95.60
68480;DHT22;55469;48.934;12.050;2023-02-11T00:48:34;-2.10;95.70
68480;DHT22;55469;48.934;12.050;2023-02-11T00:51:00;-2.10;95.60
68480;DHT22;55469;48.934;12.050;2023-02-11T00:53:26;-2.10;95.70
68480;DHT22;55469;48.934;12.050;2023-02-11T00:55:52;-2.10;95.60
68480;DHT22;55469;48.934;12.050;2023-02-11T00:58:18;-2.10;95.60
68480;DHT22;55469;48.934;12.050;2023-02-11T01:00:43;-2.10;95.60
68480;DHT22;55469;48.934;12.050;2023-02-11T01:03:09;-2.10;95.60
68480;DHT22;55469;48.934;12.050;2023-02-11T01:05:35;-2.20;95.60
68480;DHT22;55469;48.934;12.050;2023-02-11T01:08:00;-2.10;95.60
68480;DHT22;55469;48.934;12.050;2023-02-11T01:10:27;-2.20;95.60
68480;DHT22;55469;48.934;12.050;2023-02-11T01:12:53;-2.20;95.70
68480;DHT22;55469;48.934;12.050;2023-02-11T01:15:19;-2.20;95.60
68480;DHT22;55469;48.934;12.050;2023-02-11T01:17:45;-2.20;95.60
68480;DHT22;55469;48.934;12.050;2023-02-11T01:20:15;-2.10;96.10
68480;DHT22;55469;48.934;12.050;2023-02-11T01:22:43;-2.20;95.60
68480;DHT22;55469;48.934;12.050;2023-02-11T01:25:09;-2.20;95.60
68480;DHT22;55469;48.934;12.050;2023-02-11T01:27:36;-2.20;95.60
68480;DHT22;55469;48.934;12.050;2023-02-11T01:30:03;-2.20;95.60
68480;DHT22;55469;48.934;12.050;2023-02-11T01:32:30;-2.20;95.60
68480;DHT22;55469;48.934;12.050;2023-02-11T01:34:56;-2.20;95.60
68480;DHT22;55469;48.934;12.050;2023-02-11T01:37:22;-2.20;95.60
68480;DHT22;55469;48.934;12.050;2023-02-11T01:39:48;-2.20;95.60
68480;DHT22;55469;48.934;12.050;2023-02-11T01:42:21;-2.20;95.60
68480;DHT22;55469;48.934;12.050;2023-02-11T01:44:50;-2.20;95.60
68480;DHT22;55469;48.934;12.050;2023-02-11T01:47:18;-2.30;95.60
68480;DHT22;55469;48.934;12.050;2023-02-11T01:49:48;-2.30;95.60
68480;DHT22;55469;48.934;12.050;2023-02-11T01:52:24;-2.30;95.60
68480;DHT22;55469;48.934;12.050;2023-02-11T01:54:56;-2.30;95.60
68480;DHT22;55469;48.934;12.050;2023-02-11T01:57:46;-2.30;95.60
68480;DHT22;55469;48.934;12.050;2023-02-11T02:00:17;-2.30;95.60
68480;DHT22;55469;48.934;12.050;2023-02-11T02:05:53;-2.30;95.60
68480;DHT22;55469;48.934;12.050;2023-02-11T02:08:35;-2.30;95.60
68480;DHT22;55469;48.934;12.050;2023-02-11T02:11:14;-2.30;95.60
68480;DHT22;55469;48.934;12.050;2023-02-11T02:13:40;-2.30;95.60
68480;DHT22;55469;48.934;12.050;2023-02-11T02:16:13;-2.30;95.60
68480;DHT22;55469;48.934;12.050;2023-02-11T02:24:46;-2.30;95.60
68480;DHT22;55469;48.934;12.050;2023-02-11T02:27:41;-2.30;95.60
68480;DHT22;55469;48.934;12.050;2023-02-11T02:31:04;-2.40;95.50
68480;DHT22;55469;48.934;12.050;2023-02-11T02:33:37;-2.40;95.50
68480;DHT22;55469;48.934;12.050;2023-02-11T02:36:13;-2.40;95.50
68480;DHT22;55469;48.934;12.050;2023-02-11T02:38:45;-2.40;95.50
68480;DHT22;55469;48.934;12.050;2023-02-11T02:41:18;-2.40;95.50
68480;DHT22;55469;48.934;12.050;2023-02-11T02:43:48;-2.40;95.50
68480;DHT22;55469;48.934;12.050;2023-02-11T02:46:22;-2.40;95.50
68480;DHT22;55469;48.934;12.050;2023-02-11T02:48:49;-2.40;95.50
68480;DHT22;55469;48.934;12.050;2023-02-11T02:51:40;-2.40;95.50
68480;DHT22;55469;48.934;12.050;2023-02-11T03:00:32;-2.40;95.50
68480;DHT22;55469;48.934;12.050;2023-02-11T03:03:34;-2.40;95.50
68480;DHT22;55469;48.934;12.050;2023-02-11T03:06:16;-2.40;95.50
68480;DHT22;55469;48.934;12.050;2023-02-11T03:08:50;-2.40;95.50
68480;DHT22;55469;48.934;12.050;2023-02-11T03:11:21;-2.50;95.50
68480;DHT22;55469;48.934;12.050;2023-02-11T03:13:48;-2.40;95.50
68480;DHT22;55469;48.934;12.050;2023-02-11T03:16:22;-2.40;95.40
68480;DHT22;55469;48.934;12.050;2023-02-11T03:18:57;-2.50;95.40
68480;DHT22;55469;48.934;12.050;2023-02-11T03:21:26;-2.40;95.50
68480;DHT22;55469;48.934;12.050;2023-02-11T03:23:54;-2.50;95.40
68480;DHT22;55469;48.934;12.050;2023-02-11T03:26:33;-2.50;95.40
68480;DHT22;55469;48.934;12.050;2023-02-11T03:29:17;-2.50;95.40
68480;DHT22;55469;48.934;12.050;2023-02-11T03:32:01;-2.50;95.40
68480;DHT22;55469;48.934;12.050;2023-02-11T03:34:53;-2.50;95.50
68480;DHT22;55469;48.934;12.050;2023-02-11T03:40:31;-2.50;95.40
68480;DHT22;55469;48.934;12.050;2023-02-11T03:43:14;-2.50;95.40
68480;DHT22;55469;48.934;12.050;2023-02-11T03:45:50;-2.50;95.40
68480;DHT22;55469;48.934;12.050;2023-02-11T03:48:21;-2.50;95.40
68480;DHT22;55469;48.934;12.050;2023-02-11T03:50:51;-2.50;95.40
68480;DHT22;55469;48.934;12.050;2023-02-11T03:53:20;-2.50;95.40
68480;DHT22;55469;48.934;12.050;2023-02-11T03:55:48;-2.50;95.40
68480;DHT22;55469;48.934;12.050;2023-02-11T03:58:14;-2.50;95.40
68480;DHT22;55469;48.934;12.050;2023-02-11T04:00:41;-2.50;95.40
68480;DHT22;55469;48.934;12.050;2023-02-11T04:03:08;-2.50;95.40
68480;DHT22;55469;48.934;12.050;2023-02-11T04:05:34;-2.50;95.40
68480;DHT22;55469;48.934;12.050;2023-02-11T04:08:00;-2.50;95.40
68480;DHT22;55469;48.934;12.050;2023-02-11T04:10:26;-2.50;95.40
68480;DHT22;55469;48.934;12.050;2023-02-11T04:12:52;-2.50;95.30
68480;DHT22;55469;48.934;12.050;2023-02-11T04:15:18;-2.50;95.30
68480;DHT22;55469;48.934;12.050;2023-02-11T04:17:44;-2.50;95.30
68480;DHT22;55469;48.934;12.050;2023-02-11T04:20:10;-2.50;95.30
68480;DHT22;55469;48.934;12.050;2023-02-11T04:22:36;-2.50;95.30
68480;DHT22;55469;48.934;12.050;2023-02-11T04:25:03;-2.50;95.30
68480;DHT22;55469;48.934;12.050;2023-02-11T04:27:30;-2.50;95.30
68480;DHT22;55469;48.934;12.050;2023-02-11T04:29:56;-2.50;95.30
68480;DHT22;55469;48.934;12.050;2023-02-11T04:32:21;-2.60;95.30
68480;DHT22;55469;48.934;12.050;2023-02-11T04:34:47;-2.50;95.30
68480;DHT22;55469;48.934;12.050;2023-02-11T04:37:13;-2.50;95.30
68480;DHT22;55469;48.934;12.050;2023-02-11T04:39:39;-2.50;95.30
68480;DHT22;55469;48.934;12.050;2023-02-11T04:42:05;-2.50;95.20
68480;DHT22;55469;48.934;12.050;2023-02-11T04:44:31;-2.50;95.30
68480;DHT22;55469;48.934;12.050;2023-02-11T04:46:57;-2.50;95.20
68480;DHT22;55469;48.934;12.050;2023-02-11T04:49:23;-2.50;95.20
68480;DHT22;55469;48.934;12.050;2023-02-11T04:51:49;-2.50;95.20
68480;DHT22;55469;48.934;12.050;2023-02-11T04:54:15;-2.50;95.20
68480;DHT22;55469;48.934;12.050;2023-02-11T04:56:41;-2.50;95.20
68480;DHT22;55469;48.934;12.050;2023-02-11T04:59:07;-2.50;95.20
68480;DHT22;55469;48.934;12.050;2023-02-11T05:01:33;-2.50;95.20
68480;DHT22;55469;48.934;12.050;2023-02-11T05:03:59;-2.50;95.20
68480;DHT22;55469;48.934;12.050;2023-02-11T05:06:24;-2.50;95.20
68480;DHT22;55469;48.934;12.050;2023-02-11T05:08:50;-2.50;95.20
68480;DHT22;55469;48.934;12.050;2023-02-11T05:11:19;-2.50;95.20
68480;DHT22;55469;48.934;12.050;2023-02-11T05:13:46;-2.50;95.20
68480;DHT22;55469;48.934;12.050;2023-02-11T05:16:13;-2.60;95.10
68480;DHT22;55469;48.934;12.050;2023-02-11T05:18:43;-2.50;95.20
68480;DHT22;55469;48.934;12.050;2023-02-11T05:21:13;-2.50;95.20
68480;DHT22;55469;48.934;12.050;2023-02-11T05:23:40;-2.50;95.20
68480;DHT22;55469;48.934;12.050;2023-02-11T05:26:07;-2.50;95.20
68480;DHT22;55469;48.934;12.050;2023-02-11T05:28:33;-2.50;95.20
68480;DHT22;55469;48.934;12.050;2023-02-11T05:30:59;-2.50;95.20
68480;DHT22;55469;48.934;12.050;2023-02-11T05:33:25;-2.50;95.20
68480;DHT22;55469;48.934;12.050;2023-02-11T05:35:51;-2.50;95.20
68480;DHT22;55469;48.934;12.050;2023-02-11T05:38:23;-2.50;95.20
68480;DHT22;55469;48.934;12.050;2023-02-11T05:40:48;-2.50;95.10
68480;DHT22;55469;48.934;12.050;2023-02-11T05:43:14;-2.50;95.10
68480;DHT22;55469;48.934;12.050;2023-02-11T05:45:40;-2.50;95.10
68480;DHT22;55469;48.934;12.050;2023-02-11T05:48:05;-2.50;95.20
68480;DHT22;55469;48.934;12.050;2023-02-11T05:50:31;-2.60;95.10
68480;DHT22;55469;48.934;12.050;2023-02-11T05:52:57;-2.50;95.10
68480;DHT22;55469;48.934;12.050;2023-02-11T05:55:22;-2.50;95.20
68480;DHT22;55469;48.934;12.050;2023-02-11T05:57:48;-2.50;95.10
68480;DHT22;55469;48.934;12.050;2023-02-11T06:00:14;-2.50;95.10
68480;DHT22;55469;48.934;12.050;2023-02-11T06:02:40;-2.50;95.10
68480;DHT22;55469;48.934;12.050;2023-02-11T06:05:06;-2.60;95.10
68480;DHT22;55469;48.934;12.050;2023-02-11T06:07:32;-2.50;95.10
68480;DHT22;55469;48.934;12.050;2023-02-11T06:09:58;-2.50;95.10
68480;DHT22;55469;48.934;12.050;2023-02-11T06:12:24;-2.50;95.10
68480;DHT22;55469;48.934;12.050;2023-02-11T06:14:49;-2.50;95.10
68480;DHT22;55469;48.934;12.050;2023-02-11T06:17:15;-2.50;95.20
68480;DHT22;55469;48.934;12.050;2023-02-11T06:19:41;-2.50;95.20
68480;DHT22;55469;48.934;12.050;2023-02-11T06:22:06;-2.50;95.10
68480;DHT22;55469;48.934;12.050;2023-02-11T06:24:32;-2.50;95.10
68480;DHT22;55469;48.934;12.050;2023-02-11T06:26:58;-2.50;95.20
68480;DHT22;55469;48.934;12.050;2023-02-11T06:29:23;-2.50;95.10
68480;DHT22;55469;48.934;12.050;2023-02-11T06:31:49;-2.50;95.10
68480;DHT22;55469;48.934;12.050;2023-02-11T06:34:15;-2.50;95.10
68480;DHT22;55469;48.934;12.050;2023-02-11T06:36:44;-2.50;95.10
68480;DHT22;55469;48.934;12.050;2023-02-11T06:39:11;-2.50;95.10
68480;DHT22;55469;48.934;12.050;2023-02-11T06:41:37;-2.50;95.20
68480;DHT22;55469;48.934;12.050;2023-02-11T06:44:03;-2.50;95.10
68480;DHT22;55469;48.934;12.050;2023-02-11T06:46:28;-2.50;95.10
68480;DHT22;55469;48.934;12.050;2023-02-11T06:48:54;-2.50;95.10
68480;DHT22;55469;48.934;12.050;2023-02-11T06:51:20;-2.50;95.10
68480;DHT22;55469;48.934;12.050;2023-02-11T06:53:46;-2.50;95.10
68480;DHT22;55469;48.934;12.050;2023-02-11T06:56:19;-2.40;95.10
68480;DHT22;55469;48.934;12.050;2023-02-11T06:58:46;-2.50;95.10
68480;DHT22;55469;48.934;12.050;2023-02-11T07:01:14;-2.50;95.10
68480;DHT22;55469;48.934;12.050;2023-02-11T07:03:42;-2.50;95.10
68480;DHT22;55469;48.934;12.050;2023-02-11T07:06:12;-2.50;95.10
68480;DHT22;55469;48.934;12.050;2023-02-11T07:08:40;-2.50;95.10
68480;DHT22;55469;48.934;12.050;2023-02-11T07:11:19;-2.50;95.20
68480;DHT22;55469;48.934;12.050;2023-02-11T07:13:55;-2.40;95.20
68480;DHT22;55469;48.934;12.050;2023-02-11T07:16:24;-2.50;95.20
68480;DHT22;55469;48.934;12.050;2023-02-11T07:18:50;-2.40;95.10
68480;DHT22;55469;48.934;12.050;2023-02-11T07:21:19;-2.40;95.10
68480;DHT22;55469;48.934;12.050;2023-02-11T07:23:46;-2.40;95.10
68480;DHT22;55469;48.934;12.050;2023-02-11T07:26:15;-2.40;95.60
68480;DHT22;55469;48.934;12.050;2023-02-11T07:28:43;-2.40;95.10
68480;DHT22;55469;48.934;12.050;2023-02-11T07:31:14;-2.40;95.20
68480;DHT22;55469;48.934;12.050;2023-02-11T07:33:42;-2.40;95.20
68480;DHT22;55469;48.934;12.050;2023-02-11T07:36:11;-2.40;95.20
68480;DHT22;55469;48.934;12.050;2023-02-11T07:38:38;-2.40;95.20
68480;DHT22;55469;48.934;12.050;2023-02-11T07:41:06;-2.40;95.20
68480;DHT22;55469;48.934;12.050;2023-02-11T07:43:37;-2.40;95.10
68480;DHT22;55469;48.934;12.050;2023-02-11T07:46:05;-2.40;95.20
68480;DHT22;55469;48.934;12.050;2023-02-11T07:48:32;-2.40;95.20
68480;DHT22;55469;48.934;12.050;2023-02-11T07:51:28;-2.40;95.30
68480;DHT22;55469;48.934;12.050;2023-02-11T07:53:56;-2.40;95.30
68480;DHT22;55469;48.934;12.050;2023-02-11T07:56:23;-2.30;95.30
68480;DHT22;55469;48.934;12.050;2023-02-11T07:58:50;-2.30;95.30
68480;DHT22;55469;48.934;12.050;2023-02-11T08:01:18;-2.30;95.30
68480;DHT22;55469;48.934;12.050;2023-02-11T08:03:47;-2.30;95.30
68480;DHT22;55469;48.934;12.050;2023-02-11T08:06:14;-2.30;95.20
68480;DHT22;55469;48.934;12.050;2023-02-11T08:08:41;-2.30;95.20
68480;DHT22;55469;48.934;12.050;2023-02-11T08:11:09;-2.30;95.20
68480;DHT22;55469;48.934;12.050;2023-02-11T08:13:51;-2.30;95.20
68480;DHT22;55469;48.934;12.050;2023-02-11T08:16:26;-2.30;95.20
68480;DHT22;55469;48.934;12.050;2023-02-11T08:18:56;-2.30;95.10
68480;DHT22;55469;48.934;12.050;2023-02-11T08:21:23;-2.20;95.20
68480;DHT22;55469;48.934;12.050;2023-02-11T08:23:49;-2.20;95.10
68480;DHT22;55469;48.934;12.050;2023-02-11T08:26:21;-2.20;95.10
68480;DHT22;55469;48.934;12.050;2023-02-11T08:28:50;-2.20;95.10
68480;DHT22;55469;48.934;12.050;2023-02-11T08:31:22;-2.20;95.10
68480;DHT22;55469;48.934;12.050;2023-02-11T08:33:52;-2.20;95.10
68480;DHT22;55469;48.934;12.050;2023-02-11T08:36:25;-2.20;95.10
68480;DHT22;55469;48.934;12.050;2023-02-11T08:38:57;-2.20;95.10
68480;DHT22;55469;48.934;12.050;2023-02-11T08:41:33;-2.10;95.10
68480;DHT22;55469;48.934;12.050;2023-02-11T08:43:59;-2.10;95.00
68480;DHT22;55469;48.934;12.050;2023-02-11T08:46:26;-2.10;95.10
68480;DHT22;55469;48.934;12.050;2023-02-11T08:48:52;-2.10;95.00
68480;DHT22;55469;48.934;12.050;2023-02-11T08:51:26;-2.00;95.00
68480;DHT22;55469;48.934;12.050;2023-02-11T08:53:53;-2.00;95.00
68480;DHT22;55469;48.934;12.050;2023-02-11T08:56:20;-2.00;95.00
68480;DHT22;55469;48.934;12.050;2023-02-11T08:58:50;-2.00;95.00
68480;DHT22;55469;48.934;12.050;2023-02-11T09:01:22;-2.00;95.10
68480;DHT22;55469;48.934;12.050;2023-02-11T09:03:50;-2.00;95.10
68480;DHT22;55469;48.934;12.050;2023-02-11T09:06:17;-1.90;95.10
68480;DHT22;55469;48.934;12.050;2023-02-11T09:08:46;-1.90;95.00
68480;DHT22;55469;48.934;12.050;2023-02-11T09:11:18;-1.90;95.00
68480;DHT22;55469;48.934;12.050;2023-02-11T09:13:46;-1.80;94.90
68480;DHT22;55469;48.934;12.050;2023-02-11T09:16:21;-1.80;94.90
68480;DHT22;55469;48.934;12.050;2023-02-11T09:18:49;-1.70;94.90
68480;DHT22;55469;48.934;12.050;2023-02-11T09:21:15;-1.70;94.90
68480;DHT22;55469;48.934;12.050;2023-02-11T09:23:42;-1.70;94.80
68480;DHT22;55469;48.934;12.050;2023-02-11T09:26:13;-1.70;95.20
68480;DHT22;55469;48.934;12.050;2023-02-11T09:28:40;-1.70;94.80
68480;DHT22;55469;48.934;12.050;2023-02-11T09:31:08;-1.70;94.80
68480;DHT22;55469;48.934;12.050;2023-02-11T09:33:36;-1.70;94.80
68480;DHT22;55469;48.934;12.050;2023-02-11T09:36:04;-1.70;95.30
68480;DHT22;55469;48.934;12.050;2023-02-11T09:38:31;-1.70;94.80
68480;DHT22;55469;48.934;12.050;2023-02-11T09:40:57;-1.70;94.90
68480;DHT22;55469;48.934;12.050;2023-02-11T09:43:45;-1.60;94.80
68480;DHT22;55469;48.934;12.050;2023-02-11T09:46:14;-1.70;94.80
68480;DHT22;55469;48.934;12.050;2023-02-11T09:48:42;-1.70;94.90
68480;DHT22;55469;48.934;12.050;2023-02-11T09:54:30;-1.70;94.90
68480;DHT22;55469;48.934;12.050;2023-02-11T09:57:00;-1.60;94.90
68480;DHT22;55469;48.934;12.050;2023-02-11T09:59:26;-1.70;94.90
68480;DHT22;55469;48.934;12.050;2023-02-11T10:02:03;-1.60;94.90
68480;DHT22;55469;48.934;12.050;2023-02-11T10:05:04;-1.60;94.80
68480;DHT22;55469;48.934;12.050;2023-02-11T10:07:56;-1.60;94.90
68480;DHT22;55469;48.934;12.050;2023-02-11T10:10:45;-1.60;94.90
68480;DHT22;55469;48.934;12.050;2023-02-11T10:18:54;-1.60;94.80
68480;DHT22;55469;48.934;12.050;2023-02-11T10:21:39;-1.60;94.90
68480;DHT22;55469;48.934;12.050;2023-02-11T10:24:27;-1.50;95.20
68480;DHT22;55469;48.934;12.050;2023-02-11T10:26:53;-1.50;94.80
68480;DHT22;55469;48.934;12.050;2023-02-11T10:32:37;-1.50;94.70
68480;DHT22;55469;48.934;12.050;2023-02-11T10:35:20;-1.40;94.80
68480;DHT22;55469;48.934;12.050;2023-02-11T10:37:47;-1.40;94.70
68480;DHT22;55469;48.934;12.050;2023-02-11T10:40:14;-1.40;94.70
68480;DHT22;55469;48.934;12.050;2023-02-11T10:42:44;-1.40;94.70
68480;DHT22;55469;48.934;12.050;2023-02-11T10:45:27;-1.40;94.70
68480;DHT22;55469;48.934;12.050;2023-02-11T10:47:59;-1.30;94.80
68480;DHT22;55469;48.934;12.050;2023-02-11T10:50:28;-1.40;94.70
68480;DHT22;55469;48.934;12.050;2023-02-11T10:53:17;-1.30;94.70
68480;DHT22;55469;48.934;12.050;2023-02-11T10:55:53;-1.30;94.60
68480;DHT22;55469;48.934;12.050;2023-02-11T10:58:39;-1.30;94.60
68480;DHT22;55469;48.934;12.050;2023-02-11T11:01:07;-1.20;94.60
68480;DHT22;55469;48.934;12.050;2023-02-11T11:03:37;-1.20;94.60
68480;DHT22;55469;48.934;12.050;2023-02-11T11:06:08;-1.20;94.60
68480;DHT22;55469;48.934;12.050;2023-02-11T11:08:48;-1.20;94.50
68480;DHT22;55469;48.934;12.050;2023-02-11T11:11:18;-1.20;94.60
68480;DHT22;55469;48.934;12.050;2023-02-11T11:16:27;-1.00;94.70
68480;DHT22;55469;48.934;12.050;2023-02-11T11:21:44;-0.80;94.70
68480;DHT22;55469;48.934;12.050;2023-02-11T11:24:26;-0.70;95.00
68480;DHT22;55469;48.934;12.050;2023-02-11T11:26:58;-0.50;95.00
68480;DHT22;55469;48.934;12.050;2023-02-11T11:29:37;-0.50;94.90
68480;DHT22;55469;48.934;12.050;2023-02-11T11:32:26;-0.60;94.90
68480;DHT22;55469;48.934;12.050;2023-02-11T11:34:59;-0.60;94.70
68480;DHT22;55469;48.934;12.050;2023-02-11T11:37:29;-0.60;94.70
68480;DHT22;55469;48.934;12.050;2023-02-11T11:40:21;-0.70;94.70
68480;DHT22;55469;48.934;12.050;2023-02-11T11:43:14;-0.70;94.80
68480;DHT22;55469;48.934;12.050;2023-02-11T11:45:56;-0.70;94.70
68480;DHT22;55469;48.934;12.050;2023-02-11T11:50:56;-0.70;94.80
68480;DHT22;55469;48.934;12.050;2023-02-11T11:53:34;-0.70;94.70
68480;DHT22;55469;48.934;12.050;2023-02-11T11:56:16;-0.70;94.70
68480;DHT22;55469;48.934;12.050;2023-02-11T11:58:44;-0.70;94.70
68480;DHT22;55469;48.934;12.050;2023-02-11T12:04:15;-0.60;94.70
68480;DHT22;55469;48.934;12.050;2023-02-11T12:12:31;-0.60;94.60
68480;DHT22;55469;48.934;12.050;2023-02-11T12:17:51;-0.60;94.60
68480;DHT22;55469;48.934;12.050;2023-02-11T12:20:27;-0.50;94.50
68480;DHT22;55469;48.934;12.050;2023-02-11T12:26:21;-0.50;94.60
68480;DHT22;55469;48.934;12.050;2023-02-11T12:35:09;-0.40;94.50
68480;DHT22;55469;48.934;12.050;2023-02-11T12:44:07;-0.40;94.30
68480;DHT22;55469;48.934;12.050;2023-02-11T12:46:50;-0.40;94.30
68480;DHT22;55469;48.934;12.050;2023-02-11T12:49:40;-0.30;94.30
68480;DHT22;55469;48.934;12.050;2023-02-11T12:52:20;-0.30;94.20
68480;DHT22;55469;48.934;12.050;2023-02-11T12:55:14;-0.30;94.20
68480;DHT22;55469;48.934;12.050;2023-02-11T12:57:45;-0.20;94.20
68480;DHT22;55469;48.934;12.050;2023-02-11T13:00:26;-0.20;94.20
68480;DHT22;55469;48.934;12.050;2023-02-11T13:03:10;-0.20;94.10
68480;DHT22;55469;48.934;12.050;2023-02-11T13:10:45;-0.20;94.10
68480;DHT22;55469;48.934;12.050;2023-02-11T13:13:20;-0.20;94.10
68480;DHT22;55469;48.934;12.050;2023-02-11T13:15:52;-0.20;94.20
68480;DHT22;55469;48.934;12.050;2023-02-11T13:21:08;-0.20;94.20
68480;DHT22;55469;48.934;12.050;2023-02-11T13:40:41;-0.10;94.30
68480;DHT22;55469;48.934;12.050;2023-02-11T13:43:19;-0.10;94.30
68480;DHT22;55469;48.934;12.050;2023-02-11T13:45:48;-0.10;94.30
68480;DHT22;55469;48.934;12.050;2023-02-11T13:48:29;-0.10;94.20
68480;DHT22;55469;48.934;12.050;2023-02-11T13:51:04;-0.10;94.70
68480;DHT22;55469;48.934;12.050;2023-02-11T13:54:01;-0.10;94.20
68480;DHT22;55469;48.934;12.050;2023-02-11T13:56:36;-0.10;94.30
68480;DHT22;55469;48.934;12.050;2023-02-11T14:04:36;-0.10;94.30
68480;DHT22;55469;48.934;12.050;2023-02-11T14:07:33;-0.10;94.30
68480;DHT22;55469;48.934;12.050;2023-02-11T14:15:45;0.00;94.30
68480;DHT22;55469;48.934;12.050;2023-02-11T14:29:16;0.10;94.30
68480;DHT22;55469;48.934;12.050;2023-02-11T14:32:26;0.10;94.30
68480;DHT22;55469;48.934;12.050;2023-02-11T14:35:02;0.10;94.30
68480;DHT22;55469;48.934;12.050;2023-02-11T14:40:48;0.20;94.20
68480;DHT22;55469;48.934;12.050;2023-02-11T14:43:27;0.20;94.20
68480;DHT22;55469;48.934;12.050;2023-02-11T14:46:19;0.20;94.20
68480;DHT22;55469;48.934;12.050;2023-02-11T14:48:47;0.20;94.30
68480;DHT22;55469;48.934;12.050;2023-02-11T14:51:19;0.20;94.20
68480;DHT22;55469;48.934;12.050;2023-02-11T14:53:54;0.20;94.30
68480;DHT22;55469;48.934;12.050;2023-02-11T14:56:28;0.20;94.20
68480;DHT22;55469;48.934;12.050;2023-02-11T14:58:59;0.20;94.40
68480;DHT22;55469;48.934;12.050;2023-02-11T15:01:38;0.20;94.30
68480;DHT22;55469;48.934;12.050;2023-02-11T15:04:28;0.30;94.30
68480;DHT22;55469;48.934;12.050;2023-02-11T15:06:57;0.30;94.20
68480;DHT22;55469;48.934;12.050;2023-02-11T15:09:36;0.20;94.20
68480;DHT22;55469;48.934;12.050;2023-02-11T15:12:09;0.30;94.20
68480;DHT22;55469;48.934;12.050;2023-02-11T15:14:45;0.30;94.20
68480;DHT22;55469;48.934;12.050;2023-02-11T15:17:15;0.30;94.30
68480;DHT22;55469;48.934;12.050;2023-02-11T15:19:46;0.30;94.30
68480;DHT22;55469;48.934;12.050;2023-02-11T15:22:26;0.30;94.30
68480;DHT22;55469;48.934;12.050;2023-02-11T15:25:15;0.30;94.30
68480;DHT22;55469;48.934;12.050;2023-02-11T15:27:46;0.30;94.30
68480;DHT22;55469;48.934;12.050;2023-02-11T15:33:01;0.30;94.30
68480;DHT22;55469;48.934;12.050;2023-02-11T15:37:58;0.30;94.20
68480;DHT22;55469;48.934;12.050;2023-02-11T15:40:27;0.30;94.30
68480;DHT22;55469;48.934;12.050;2023-02-11T15:42:57;0.30;94.30
68480;DHT22;55469;48.934;12.050;2023-02-11T15:45:38;0.40;94.40
68480;DHT22;55469;48.934;12.050;2023-02-11T15:50:39;0.30;94.40
68480;DHT22;55469;48.934;12.050;2023-02-11T15:53:24;0.40;94.40
68480;DHT22;55469;48.934;12.050;2023-02-11T15:56:13;0.40;94.40
68480;DHT22;55469;48.934;12.050;2023-02-11T15:58:45;0.40;94.40
68480;DHT22;55469;48.934;12.050;2023-02-11T16:01:12;0.40;94.40
68480;DHT22;55469;48.934;12.050;2023-02-11T16:03:40;0.40;94.50
68480;DHT22;55469;48.934;12.050;2023-02-11T16:06:39;0.40;94.40
68480;DHT22;55469;48.934;12.050;2023-02-11T16:11:58;0.40;94.40
68480;DHT22;55469;48.934;12.050;2023-02-11T16:17:11;0.40;94.40
68480;DHT22;55469;48.934;12.050;2023-02-11T16:19:47;0.40;94.30
68480;DHT22;55469;48.934;12.050;2023-02-11T16:22:23;0.40;94.30
68480;DHT22;55469;48.934;12.050;2023-02-11T16:24:52;0.40;94.40
68480;DHT22;55469;48.934;12.050;2023-02-11T16:29:50;0.50;94.30
68480;DHT22;55469;48.934;12.050;2023-02-11T16:32:23;0.50;94.40
68480;DHT22;55469;48.934;12.050;2023-02-11T16:34:51;0.50;94.30
68480;DHT22;55469;48.934;12.050;2023-02-11T16:37:18;0.50;94.40
68480;DHT22;55469;48.934;12.050;2023-02-11T16:39:44;0.50;94.30
68480;DHT22;55469;48.934;12.050;2023-02-11T16:42:12;0.50;94.30
68480;DHT22;55469;48.934;12.050;2023-02-11T16:44:38;0.50;94.30
68480;DHT22;55469;48.934;12.050;2023-02-11T16:47:06;0.50;94.30
68480;DHT22;55469;48.934;12.050;2023-02-11T16:49:36;0.50;94.30
68480;DHT22;55469;48.934;12.050;2023-02-11T16:52:08;0.50;94.40
68480;DHT22;55469;48.934;12.050;2023-02-11T16:54:37;0.50;94.20
68480;DHT22;55469;48.934;12.050;2023-02-11T16:57:18;0.50;94.20
68480;DHT22;55469;48.934;12.050;2023-02-11T16:59:45;0.50;94.30
68480;DHT22;55469;48.934;12.050;2023-02-11T17:04:44;0.50;94.30
68480;DHT22;55469;48.934;12.050;2023-02-11T17:07:11;0.50;94.40
68480;DHT22;55469;48.934;12.050;2023-02-11T17:09:37;0.50;94.30
68480;DHT22;55469;48.934;12.050;2023-02-11T17:12:02;0.50;94.40
68480;DHT22;55469;48.934;12.050;2023-02-11T17:14:28;0.50;94.30
68480;DHT22;55469;48.934;12.050;2023-02-11T17:16:55;0.50;94.30
68480;DHT22;55469;48.934;12.050;2023-02-11T17:19:21;0.60;94.40
68480;DHT22;55469;48.934;12.050;2023-02-11T17:21:48;0.60;94.40
68480;DHT22;55469;48.934;12.050;2023-02-11T17:24:15;0.60;94.40
68480;DHT22;55469;48.934;12.050;2023-02-11T17:26:42;0.60;94.30
68480;DHT22;55469;48.934;12.050;2023-02-11T17:29:10;0.50;94.30
68480;DHT22;55469;48.934;12.050;2023-02-11T17:31:39;0.50;94.30
68480;DHT22;55469;48.934;12.050;2023-02-11T17:34:05;0.60;94.30
68480;DHT22;55469;48.934;12.050;2023-02-11T17:36:30;0.60;94.30
68480;DHT22;55469;48.934;12.050;2023-02-11T17:38:58;0.60;94.30
68480;DHT22;55469;48.934;12.050;2023-02-11T17:41:24;0.60;94.30
68480;DHT22;55469;48.934;12.050;2023-02-11T17:43:50;0.60;94.30
68480;DHT22;55469;48.934;12.050;2023-02-11T17:46:16;0.60;94.30
68480;DHT22;55469;48.934;12.050;2023-02-11T17:48:42;0.60;94.30
68480;DHT22;55469;48.934;12.050;2023-02-11T17:51:33;0.60;94.30
68480;DHT22;55469;48.934;12.050;2023-02-11T17:54:03;0.60;94.30
68480;DHT22;55469;48.934;12.050;2023-02-11T17:56:31;0.60;94.30
68480;DHT22;55469;48.934;12.050;2023-02-11T17:58:58;0.60;94.30
68480;DHT22;55469;48.934;12.050;2023-02-11T18:01:26;0.60;94.30